Time;durP1;ratioP1;P1;durP2;ratioP2;P2;SDS_P1;SDS_P2;PMS_P1;PMS_P2;Temp;Humidity;BMP_temperature;BMP_pressure;BME280_temperature;BME280_humidity;BME280_pressure;Samples;Min_cycle;Max_cycle;Signal;HPM_P1;HPM_P2
2021/05/16 00:01:31;;;;;;;1.55;0.30;;;13.00;99.90;;;12.43;87.60;99771.56;5009742;28;20133;-60
2021/05/16 00:03:56;;;;;;;0.93;0.30;;;13.00;99.90;;;12.44;87.91;99763.53;5009673;28;20037;-59
2021/05/16 00:06:24;;;;;;;2.05;0.47;;;13.00;99.90;;;12.45;88.15;99765.16;5009073;28;20030;-57
2021/05/16 00:08:49;;;;;;;2.25;1.15;;;13.00;99.90;;;12.46;88.08;99771.22;5009145;28;20041;-56
2021/05/16 00:11:15;;;;;;;2.05;0.32;;;13.10;99.90;;;12.44;88.36;99775.78;5009395;28;20034;-56
2021/05/16 00:13:41;;;;;;;1.85;0.47;;;13.00;99.90;;;12.38;88.45;99779.09;5009393;28;20026;-56
2021/05/16 00:16:07;;;;;;;2.15;0.40;;;13.00;99.90;;;12.40;88.32;99787.56;4990918;28;20120;-56
2021/05/16 00:18:33;;;;;;;2.22;0.57;;;12.90;99.90;;;12.41;88.44;99783.97;5008746;28;20057;-58
2021/05/16 00:21:00;;;;;;;1.42;0.50;;;13.00;99.90;;;12.45;88.11;99780.03;5009397;28;20050;-54
2021/05/16 00:23:26;;;;;;;1.70;0.50;;;13.00;99.90;;;12.50;88.41;99777.72;5008841;28;20168;-53
2021/05/16 00:25:52;;;;;;;3.65;0.47;;;13.10;99.90;;;12.53;88.57;99761.69;5009322;28;20396;-56
2021/05/16 00:28:18;;;;;;;1.77;0.80;;;13.10;99.90;;;12.47;88.58;99757.16;5008473;28;20046;-52
2021/05/16 00:30:44;;;;;;;1.75;0.57;;;13.10;99.90;;;12.40;89.49;99771.91;5009116;28;20136;-55
2021/05/16 00:33:10;;;;;;;2.97;0.50;;;13.00;99.90;;;12.43;89.24;99767.16;5008956;28;20060;-53
2021/05/16 00:35:37;;;;;;;1.55;0.40;;;13.00;99.90;;;12.48;89.52;99766.63;5008998;28;20435;-56
2021/05/16 00:38:04;;;;;;;2.70;0.47;;;13.00;99.90;;;12.54;89.19;99773.78;5008186;28;20038;-56
2021/05/16 00:40:34;;;;;;;1.70;0.40;;;13.10;99.90;;;12.53;89.35;99766.91;5009018;28;20034;-56
2021/05/16 00:43:00;;;;;;;2.72;0.40;;;13.10;99.90;;;12.51;89.52;99768.91;5008813;28;20034;-54
2021/05/16 00:45:28;;;;;;;1.48;0.68;;;13.10;99.90;;;12.46;90.03;99766.81;5008625;28;20431;-53
2021/05/16 00:48:06;;;;;;;2.25;0.50;;;13.00;99.90;;;12.45;90.48;99766.97;5008766;28;20466;-55
2021/05/16 00:50:40;;;;;;;0.88;0.55;;;13.00;99.90;;;12.44;90.57;99774.00;5008121;28;20300;-56
2021/05/16 00:53:06;;;;;;;1.33;0.60;;;13.00;99.90;;;12.48;90.28;99757.00;5007766;28;20109;-56
2021/05/16 00:55:32;;;;;;;5.07;0.60;;;13.10;99.90;;;12.54;90.10;99760.72;5007118;28;20068;-57
2021/05/16 00:57:58;;;;;;;6.95;1.80;;;13.10;99.90;;;12.56;89.97;99758.75;5007777;28;20030;-55
2021/05/16 01:00:32;;;;;;;1.83;0.30;;;13.10;99.90;;;12.57;90.14;99755.94;5007156;28;20084;-57
2021/05/16 01:02:58;;;;;;;3.58;0.30;;;13.10;99.90;;;12.61;90.03;99753.81;5007272;28;20038;-56
2021/05/16 01:05:24;;;;;;;2.30;0.50;;;13.20;99.90;;;12.62;89.81;99750.19;5007478;28;20053;-55
2021/05/16 01:07:52;;;;;;;2.58;0.40;;;13.20;99.90;;;12.64;89.59;99748.22;5007429;28;20148;-56
2021/05/16 01:10:20;;;;;;;2.38;0.40;;;13.20;99.90;;;12.65;89.53;99749.03;5006563;28;20112;-53
2021/05/16 01:12:49;;;;;;;0.98;0.30;;;13.20;99.90;;;12.64;89.72;99737.78;4999994;28;20419;-55
2021/05/16 01:15:19;;;;;;;3.03;0.38;;;13.20;99.90;;;12.65;89.66;99744.63;5007345;28;20108;-59
2021/05/16 01:17:46;;;;;;;5.28;0.95;;;13.30;99.90;;;12.66;89.73;99746.25;5006756;28;20038;-59
2021/05/16 01:20:28;;;;;;;6.28;0.50;;;13.20;99.90;;;12.65;90.07;99744.63;5007029;28;20030;-57
2021/05/16 01:23:07;;;;;;;3.55;0.40;;;13.20;99.90;;;12.63;90.01;99744.00;5007200;28;20121;-57
2021/05/16 01:25:38;;;;;;;2.45;0.45;;;13.20;99.90;;;12.59;90.10;99743.53;5006834;28;20030;-57
2021/05/16 01:28:06;;;;;;;2.25;0.40;;;13.20;99.90;;;12.58;90.02;99739.28;5007130;28;20033;-54
2021/05/16 01:30:32;;;;;;;4.55;0.50;;;13.20;99.90;;;12.57;90.23;99735.03;5007183;28;20049;-59
2021/05/16 01:32:58;;;;;;;1.83;0.45;;;13.10;99.90;;;12.62;90.13;99730.09;5007194;28;20527;-57
2021/05/16 01:35:24;;;;;;;3.88;0.98;;;13.20;99.90;;;12.67;89.95;99737.44;5006872;28;20373;-58
2021/05/16 01:37:51;;;;;;;4.28;0.50;;;13.20;99.90;;;12.66;90.35;99737.59;5007025;28;20076;-57
2021/05/16 01:40:20;;;;;;;6.72;0.57;;;13.20;99.90;;;12.66;90.40;99742.84;5007138;28;20087;-57
2021/05/16 01:42:49;;;;;;;1.77;0.40;;;13.20;99.90;;;12.61;90.77;99749.38;5006338;28;20442;-56
2021/05/16 01:45:19;;;;;;;2.05;0.40;;;13.20;99.90;;;12.66;90.18;99751.47;5006913;28;20038;-57
2021/05/16 01:47:45;;;;;;;2.75;0.40;;;13.20;99.90;;;12.69;89.66;99751.13;5006651;28;20044;-58
2021/05/16 01:50:16;;;;;;;1.20;0.30;;;13.20;99.90;;;12.68;89.44;99744.28;5006857;28;20074;-57
2021/05/16 01:52:45;;;;;;;1.90;0.50;;;13.20;99.90;;;12.64;89.45;99748.22;5006747;28;20038;-60
2021/05/16 01:55:13;;;;;;;2.45;0.30;;;13.20;99.90;;;12.61;89.19;99746.78;5006826;28;20481;-60
2021/05/16 01:57:40;;;;;;;1.65;0.43;;;13.10;99.90;;;12.63;89.31;99738.75;5006781;28;20077;-54
2021/05/16 02:00:15;;;;;;;1.95;0.50;;;13.10;99.90;;;12.66;89.41;99743.63;5006972;28;20121;-59
2021/05/16 02:02:42;;;;;;;3.03;0.30;;;13.20;99.90;;;12.65;89.33;99743.81;5006160;28;20497;-55
2021/05/16 02:05:10;;;;;;;9.25;0.70;;;13.20;99.90;;;12.62;89.64;99750.19;5006807;28;20061;-56
2021/05/16 02:07:37;;;;;;;1.67;0.50;;;13.20;99.90;;;12.59;89.89;99740.09;5006324;28;20037;-54
2021/05/16 02:10:05;;;;;;;3.45;0.40;;;13.10;99.90;;;12.58;89.68;99748.94;5006688;28;20529;-57
2021/05/16 02:12:31;;;;;;;0.95;0.30;;;13.10;99.90;;;12.60;89.43;99737.31;5006700;28;20040;-58
2021/05/16 02:14:57;;;;;;;2.58;0.40;;;13.10;99.90;;;12.55;89.66;99734.41;5006308;28;20038;-55
2021/05/16 02:17:23;;;;;;;3.70;0.70;;;13.10;99.90;;;12.45;89.97;99735.63;5006322;28;20030;-53
2021/05/16 02:19:49;;;;;;;1.63;0.30;;;13.00;99.90;;;12.42;90.39;99738.59;5006426;28;20057;-56
2021/05/16 02:22:15;;;;;;;1.83;0.30;;;13.00;99.90;;;12.39;90.55;99746.75;5010091;28;20482;-58
2021/05/16 02:24:45;;;;;;;2.80;0.30;;;12.90;99.90;;;12.42;90.69;99739.41;5010585;28;20042;-56
2021/05/16 02:27:12;;;;;;;3.33;0.40;;;12.90;99.90;;;12.48;90.43;99736.09;5010529;28;20038;-56
2021/05/16 02:29:38;;;;;;;1.48;0.40;;;13.00;99.90;;;12.54;90.45;99739.81;5010219;28;20037;-57
2021/05/16 02:32:07;;;;;;;3.60;0.50;;;13.10;99.90;;;12.58;90.43;99736.69;5010554;28;20113;-54
2021/05/16 02:34:36;;;;;;;4.25;0.50;;;13.10;99.90;;;12.60;90.41;99736.50;5010522;28;20033;-61
2021/05/16 02:37:02;;;;;;;6.65;0.40;;;13.20;99.90;;;12.61;90.44;99738.13;5009619;28;20057;-58
2021/05/16 02:39:28;;;;;;;4.50;0.55;;;13.20;99.90;;;12.66;90.35;99740.22;4992678;28;20088;-55
2021/05/16 02:41:54;;;;;;;4.43;0.40;;;13.20;99.90;;;12.71;90.02;99749.16;5009728;28;20037;-62
2021/05/16 02:44:20;;;;;;;5.05;0.40;;;13.20;99.90;;;12.72;90.29;99756.00;5010107;28;20034;-58
2021/05/16 02:46:47;;;;;;;5.57;0.50;;;13.30;99.90;;;12.68;90.78;99759.97;5009763;28;20120;-62
2021/05/16 02:49:13;;;;;;;4.05;0.77;;;13.20;99.90;;;12.71;90.91;99761.41;5009649;28;20037;-54
2021/05/16 02:51:39;;;;;;;4.18;0.40;;;13.30;99.90;;;12.71;90.85;99764.84;5009705;28;20034;-53
2021/05/16 02:54:07;;;;;;;4.60;0.50;;;13.30;99.90;;;12.71;90.91;99762.22;5009399;28;20065;-56
2021/05/16 02:56:33;;;;;;;2.92;0.40;;;13.20;99.90;;;12.71;91.08;99764.03;5009950;28;20030;-55
2021/05/16 02:59:00;;;;;;;5.47;0.40;;;13.20;99.90;;;12.70;90.85;99757.19;5009304;28;20045;-58
2021/05/16 03:01:26;;;;;;;4.00;0.40;;;13.20;99.90;;;12.69;90.82;99766.81;5134754;23;20555;-57
2021/05/16 03:03:52;;;;;;;1.55;0.60;;;13.30;99.90;;;12.70;90.88;99773.66;4990497;28;20149;-59
2021/05/16 03:06:18;;;;;;;3.17;0.40;;;13.30;99.90;;;12.67;91.33;99763.56;4989748;28;20524;-55
2021/05/16 03:08:44;;;;;;;2.00;0.50;;;13.30;99.90;;;12.68;91.07;99765.19;4990538;28;20510;-60
2021/05/16 03:11:10;;;;;;;1.73;0.60;;;13.30;99.90;;;12.61;91.46;99769.47;4989820;28;20038;-60
2021/05/16 03:13:36;;;;;;;4.45;0.82;;;13.20;99.90;;;12.56;91.98;99769.19;4990354;28;20486;-61
2021/05/16 03:16:02;;;;;;;3.25;0.52;;;13.20;99.90;;;12.56;92.11;99777.03;4989743;28;20049;-59
2021/05/16 03:18:28;;;;;;;4.95;0.63;;;13.10;99.90;;;12.56;92.00;99767.38;4982600;28;20030;-55
2021/05/16 03:20:54;;;;;;;6.13;0.70;;;13.10;99.90;;;12.57;92.02;99773.44;4990478;28;20058;-58
2021/05/16 03:23:20;;;;;;;2.10;0.73;;;13.10;99.90;;;12.53;92.20;99769.53;4989727;28;20046;-56
2021/05/16 03:25:47;;;;;;;5.97;1.13;;;13.10;99.90;;;12.51;92.25;99761.88;4990387;28;20065;-57
2021/05/16 03:28:13;;;;;;;2.80;0.80;;;13.10;99.90;;;12.48;92.52;99766.63;4989495;28;20108;-58
2021/05/16 03:30:39;;;;;;;1.80;0.50;;;13.00;99.90;;;12.42;92.28;99755.06;4989811;28;20409;-51
2021/05/16 03:33:06;;;;;;;2.38;0.80;;;13.00;99.90;;;12.36;92.76;99765.38;4989053;28;20046;-57
2021/05/16 03:35:32;;;;;;;3.28;1.00;;;13.00;99.90;;;12.28;93.02;99759.25;4989475;28;20760;-60
2021/05/16 03:37:58;;;;;;;8.93;1.50;;;12.90;99.90;;;12.23;93.33;99769.41;4989745;28;20513;-57
2021/05/16 03:40:25;;;;;;;2.03;1.02;;;12.80;99.90;;;12.19;93.61;99765.50;4989166;28;20042;-58
2021/05/16 03:42:51;;;;;;;1.75;0.80;;;12.80;99.90;;;12.20;93.55;99763.72;4989609;28;20034;-56
2021/05/16 03:45:17;;;;;;;4.05;1.08;;;12.80;99.90;;;12.22;93.51;99766.97;4989507;28;20045;-54
2021/05/16 03:47:43;;;;;;;5.43;0.88;;;12.80;99.90;;;12.22;93.28;99766.97;4989465;28;20500;-58
2021/05/16 03:50:11;;;;;;;2.70;1.05;;;12.80;99.90;;;12.25;93.20;99772.66;4989201;28;20038;-53
2021/05/16 03:52:39;;;;;;;5.95;0.80;;;12.80;99.90;;;12.28;93.11;99777.53;4989128;28;20034;-55
2021/05/16 03:55:07;;;;;;;6.82;0.70;;;12.80;99.90;;;12.37;92.78;99777.47;4989080;28;20030;-54
2021/05/16 03:57:34;;;;;;;4.85;1.00;;;12.90;99.90;;;12.39;92.55;99786.75;4988901;28;20045;-58
2021/05/16 04:00:00;;;;;;;5.65;0.93;;;12.90;99.90;;;12.39;92.61;99780.72;4989002;28;20035;-56
2021/05/16 04:02:26;;;;;;;5.00;1.08;;;13.00;99.90;;;12.37;92.63;99788.72;4989139;28;20388;-59
2021/05/16 04:04:53;;;;;;;5.22;1.15;;;12.90;99.90;;;12.40;92.24;99791.00;4971508;28;20081;-57
2021/05/16 04:07:20;;;;;;;4.38;1.10;;;12.90;99.90;;;12.42;92.09;99786.41;4989278;28;20046;-56
2021/05/16 04:09:46;;;;;;;6.38;1.42;;;13.00;99.90;;;12.43;92.24;99789.84;4988987;28;20070;-58
2021/05/16 04:12:12;;;;;;;8.25;1.05;;;13.00;99.90;;;12.49;91.98;99794.38;4988831;28;20088;-51
2021/05/16 04:14:38;;;;;;;3.33;1.13;;;13.00;99.90;;;12.54;91.65;99789.44;4989385;28;20474;-54
2021/05/16 04:17:04;;;;;;;7.50;1.70;;;13.10;99.90;;;12.57;91.55;99786.50;4988820;28;20042;-57
2021/05/16 04:19:30;;;;;;;7.75;2.08;;;13.10;99.90;;;12.57;91.50;99794.34;4988958;28;20042;-53
2021/05/16 04:21:56;;;;;;;13.52;3.72;;;13.20;99.90;;;12.55;91.72;99791.09;4988949;28;20413;-57
2021/05/16 04:24:22;;;;;;;6.72;2.38;;;13.20;99.90;;;12.60;91.61;99781.72;4971168;28;20045;-58
2021/05/16 04:26:48;;;;;;;4.38;1.40;;;13.20;99.90;;;12.61;91.49;99785.97;4988566;28;20593;-58
2021/05/16 04:29:14;;;;;;;3.42;1.00;;;13.30;99.90;;;12.89;91.11;99781.00;4988303;28;20073;-57
2021/05/16 04:31:40;;;;;;;5.40;1.10;;;13.50;99.90;;;13.08;90.39;99779.72;4988951;28;20039;-54
2021/05/16 04:34:06;;;;;;;3.65;1.40;;;13.80;99.90;;;14.77;87.24;99780.44;4989213;28;20030;-57
2021/05/16 04:36:32;;;;;;;3.20;1.27;;;15.50;99.90;;;16.37;81.05;99778.56;4970863;28;20065;-57
2021/05/16 04:38:57;;;;;;;6.85;1.23;;;17.60;99.90;;;17.83;75.52;99779.38;4988736;28;20038;-54
2021/05/16 04:41:23;;;;;;;6.47;1.67;;;19.70;99.90;;;19.02;71.02;99778.69;4988141;28;20133;-57
2021/05/16 04:43:49;;;;;;;7.88;1.33;;;21.40;99.90;;;20.13;67.65;99779.34;4989041;28;20114;-56
2021/05/16 04:46:15;;;;;;;4.82;0.75;;;22.70;98.40;;;20.74;65.21;99778.31;4988846;28;20086;-59
2021/05/16 04:48:41;;;;;;;4.68;1.60;;;23.60;94.20;;;20.98;64.80;99767.75;4970453;28;20121;-58
2021/05/16 04:51:07;;;;;;;4.18;0.80;;;24.20;90.70;;;21.69;63.20;99777.31;4988577;28;20034;-56
2021/05/16 04:53:36;;;;;;;1.60;1.08;;;24.80;87.70;;;22.11;61.55;99776.06;4988729;28;20052;-58
2021/05/16 04:56:03;;;;;;;1.85;0.30;;;25.30;81.60;;;21.47;62.66;99788.50;4988345;28;20357;-57
2021/05/16 04:58:29;;;;;;;2.70;0.40;;;25.20;78.20;;;20.17;67.08;99804.31;4988479;28;20039;-59
2021/05/16 05:00:55;;;;;;;1.23;0.47;;;23.30;85.50;;;20.69;65.08;99793.25;4986917;28;20053;-56
2021/05/16 05:03:24;;;;;;;3.17;0.50;;;23.50;87.50;;;21.18;63.16;99800.81;4988133;28;20044;-54
2021/05/16 05:05:54;;;;;;;2.47;0.50;;;24.40;82.30;;;21.69;61.51;99798.53;4988039;28;20136;-56
2021/05/16 05:08:22;;;;;;;1.55;0.40;;;25.30;77.40;;;21.22;62.49;99797.75;4986829;28;20524;-53
2021/05/16 05:10:48;;;;;;;3.70;0.45;;;25.40;75.10;;;21.41;62.55;99793.94;4970510;28;20035;-55
2021/05/16 05:13:15;;;;;;;5.18;0.45;;;25.20;76.80;;;22.73;58.02;99799.97;4981781;28;20041;-53
2021/05/16 05:15:41;;;;;;;1.05;0.28;;;26.40;72.90;;;22.46;57.94;99802.44;4984737;28;20398;-56
2021/05/16 05:18:07;;;;;;;0.90;0.40;;;26.20;70.50;;;20.57;63.06;99813.59;4987885;28;20042;-52
2021/05/16 05:20:34;;;;;;;1.45;0.82;;;23.90;75.40;;;19.19;66.70;99806.16;4987027;28;20046;-55
2021/05/16 05:23:00;;;;;;;2.95;0.30;;;21.90;85.10;;;17.96;70.60;99815.41;4986961;28;20081;-55
2021/05/16 05:25:28;;;;;;;3.53;1.00;;;20.20;92.50;;;17.00;73.23;99820.38;4980635;28;20132;-56
2021/05/16 05:27:57;;;;;;;3.70;0.88;;;18.90;99.90;;;16.53;74.19;99830.00;4986772;28;20125;-57
2021/05/16 05:30:24;;;;;;;3.28;0.60;;;18.00;99.90;;;16.14;74.96;99828.81;4988045;28;20042;-55
2021/05/16 05:32:51;;;;;;;2.00;0.57;;;17.40;99.90;;;16.03;75.41;99847.81;4985629;28;20094;-56
2021/05/16 05:35:17;;;;;;;1.42;0.60;;;17.00;99.90;;;15.58;76.93;99842.09;4987431;28;20324;-55
2021/05/16 05:37:43;;;;;;;5.43;0.85;;;16.60;99.90;;;15.19;78.20;99845.19;4986497;28;20030;-53
2021/05/16 05:40:10;;;;;;;1.30;0.68;;;16.20;99.90;;;14.99;78.77;99848.66;4988189;28;20045;-57
2021/05/16 05:42:36;;;;;;;2.58;1.08;;;15.80;99.90;;;14.93;79.09;99848.41;4968592;28;20041;-52
2021/05/16 05:45:05;;;;;;;4.35;1.38;;;15.70;99.90;;;15.03;78.72;99847.28;4987744;28;20098;-59
2021/05/16 05:47:31;;;;;;;4.03;1.63;;;15.70;99.90;;;15.08;78.52;99844.91;4985897;28;20252;-56
2021/05/16 05:49:57;;;;;;;2.80;1.52;;;15.70;99.90;;;15.00;78.39;99848.47;4987498;28;20092;-58
2021/05/16 05:52:23;;;;;;;4.13;1.65;;;15.70;99.90;;;15.19;78.11;99847.00;4985317;28;20041;-57
2021/05/16 05:54:49;;;;;;;10.75;3.13;;;15.90;99.90;;;15.26;77.70;99838.16;4987182;28;20115;-59
2021/05/16 05:57:15;;;;;;;4.32;1.40;;;16.00;99.90;;;15.47;77.50;99845.22;4985484;28;20041;-56
2021/05/16 05:59:41;;;;;;;3.42;1.30;;;16.20;99.90;;;15.98;76.01;99858.09;4983944;28;20038;-58
2021/05/16 06:02:08;;;;;;;3.38;1.85;;;16.60;99.90;;;16.40;75.07;99853.59;4985382;28;20046;-55
2021/05/16 06:04:35;;;;;;;6.93;1.85;;;17.10;99.90;;;16.85;73.40;99858.22;4985980;28;20038;-59
2021/05/16 06:07:01;;;;;;;7.18;1.50;;;17.50;99.90;;;16.78;74.03;99862.66;4985361;28;20446;-58
2021/05/16 06:09:27;;;;;;;4.72;1.13;;;17.60;99.90;;;16.61;74.71;99863.97;4986513;28;20034;-56
2021/05/16 06:11:54;;;;;;;2.35;0.80;;;17.60;99.90;;;16.91;74.08;99856.59;4985450;28;20114;-54
2021/05/16 06:14:20;;;;;;;4.35;0.70;;;17.60;99.90;;;16.75;74.42;99863.03;4987327;28;20034;-54
2021/05/16 06:16:46;;;;;;;1.77;0.60;;;17.50;99.90;;;16.72;75.04;99867.88;4985688;28;20552;-55
2021/05/16 06:19:12;;;;;;;4.65;0.85;;;17.40;99.90;;;16.84;75.09;99871.56;4984942;28;20050;-60
2021/05/16 06:21:38;;;;;;;3.75;0.93;;;17.40;99.90;;;17.05;74.73;99870.56;4987215;28;20097;-51
2021/05/16 06:24:09;;;;;;;3.92;1.25;;;17.60;99.90;;;16.73;76.05;99875.56;4986551;28;20042;-59
2021/05/16 06:26:38;;;;;;;5.50;1.10;;;17.70;99.90;;;17.37;74.83;99874.25;4986804;28;20092;-59
2021/05/16 06:29:06;;;;;;;4.72;0.60;;;18.00;99.90;;;18.49;70.87;99879.25;4986929;28;20050;-56
2021/05/16 06:31:32;;;;;;;6.07;0.60;;;20.00;99.90;;;17.89;72.01;99874.22;4979559;28;20070;-54
2021/05/16 06:33:58;;;;;;;5.18;0.70;;;19.40;99.90;;;17.33;73.72;99887.00;4983549;28;20466;-59
2021/05/16 06:36:25;;;;;;;1.80;0.30;;;18.60;99.90;;;16.87;75.37;99890.41;4982901;28;20038;-54
2021/05/16 06:38:51;;;;;;;67.93;5.22;;;17.90;99.90;;;16.55;76.87;99891.06;4987134;28;20122;-55
2021/05/16 06:41:17;;;;;;;7.15;0.40;;;17.50;99.90;;;16.37;77.63;99896.06;4986718;28;20042;-59
2021/05/16 06:43:44;;;;;;;6.18;0.40;;;17.20;99.90;;;16.34;77.72;99909.59;4979699;28;20031;-56
2021/05/16 06:46:10;;;;;;;4.03;0.20;;;17.00;99.90;;;16.32;77.86;99904.53;4987059;28;20040;-58
2021/05/16 06:48:36;;;;;;;2.65;0.50;;;16.90;99.90;;;16.22;78.07;99907.50;4968794;28;20104;-54
2021/05/16 06:51:03;;;;;;;2.20;0.40;;;16.90;99.90;;;16.16;78.07;99905.66;4986614;28;20034;-62
2021/05/16 06:53:31;;;;;;;2.67;0.40;;;16.80;99.90;;;16.27;77.71;99909.56;4984477;28;20049;-55
2021/05/16 06:55:57;;;;;;;7.50;0.50;;;16.80;99.90;;;16.25;77.84;99917.63;4986526;28;20082;-56
2021/05/16 06:58:23;;;;;;;5.15;0.52;;;16.90;99.90;;;16.38;77.52;99921.34;4987067;28;20034;-55
2021/05/16 07:00:49;;;;;;;7.28;0.47;;;16.90;99.90;;;16.81;76.15;99917.50;4985735;28;20026;-61
2021/05/16 07:03:15;;;;;;;4.03;0.38;;;17.20;99.90;;;17.28;75.35;99925.47;4986597;28;20058;-56
2021/05/16 07:05:41;;;;;;;6.90;0.45;;;17.90;99.90;;;17.86;73.66;99914.16;4986202;28;20030;-55
2021/05/16 07:08:07;;;;;;;3.13;0.30;;;18.40;99.90;;;18.99;70.57;99916.38;4988135;28;20034;-61
2021/05/16 07:10:33;;;;;;;3.78;0.35;;;20.00;99.90;;;21.50;63.21;99904.66;4989999;28;20038;-59
2021/05/16 07:12:59;;;;;;;1.90;0.22;;;23.70;98.50;;;23.22;57.77;99909.19;4990267;28;20121;-54
2021/05/16 07:15:26;;;;;;;5.15;0.30;;;26.60;83.30;;;23.39;55.67;99898.59;4990073;28;20513;-59
2021/05/16 07:17:52;;;;;;;2.67;0.30;;;27.60;69.40;;;21.90;59.40;99903.97;4972129;28;20042;-55
2021/05/16 07:20:18;;;;;;;6.25;0.30;;;25.30;75.20;;;21.20;62.08;99914.50;4990492;28;20038;-58
2021/05/16 07:22:44;;;;;;;6.78;0.38;;;23.60;84.50;;;20.54;63.86;99915.41;4989836;28;20042;-57
2021/05/16 07:25:12;;;;;;;5.43;0.30;;;22.40;91.60;;;20.31;65.24;99912.63;4990015;28;20042;-57
2021/05/16 07:27:38;;;;;;;4.55;0.30;;;21.80;96.10;;;20.41;64.88;99910.25;4989950;28;20080;-56
2021/05/16 07:30:06;;;;;;;2.55;0.20;;;21.60;98.40;;;20.99;62.91;99909.72;4989594;28;20046;-60
2021/05/16 07:32:32;;;;;;;14.50;2.25;;;21.70;99.00;;;21.34;62.58;99907.97;4990434;28;20038;-56
2021/05/16 07:34:58;;;;;;;5.22;0.50;;;22.10;99.20;;;21.17;62.69;99893.75;4989645;28;20038;-58
2021/05/16 07:37:24;;;;;;;2.08;0.55;;;22.10;98.40;;;21.39;62.31;99897.50;4989807;28;20050;-56
2021/05/16 07:39:50;;;;;;;5.07;0.65;;;22.10;99.00;;;21.38;61.39;99885.28;4989310;28;20034;-59
2021/05/16 07:42:16;;;;;;;5.50;0.60;;;22.20;98.40;;;21.12;62.83;99890.97;4989798;28;20026;-55
2021/05/16 07:44:41;;;;;;;2.58;0.30;;;22.20;98.20;;;21.01;62.33;99887.25;4989599;28;20041;-60
2021/05/16 07:47:10;;;;;;;4.45;0.30;;;22.00;97.90;;;20.12;63.52;99880.06;4989360;28;20431;-54
2021/05/16 07:49:36;;;;;;;2.22;0.20;;;21.40;97.60;;;20.49;62.82;99878.22;4989624;28;20034;-56
2021/05/16 07:52:03;;;;;;;4.03;0.80;;;21.20;98.70;;;20.50;63.19;99882.47;4989765;28;20109;-54
2021/05/16 07:54:29;;;;;;;7.35;0.30;;;21.40;98.90;;;20.03;64.37;99876.91;4989602;28;20506;-56
2021/05/16 07:56:57;;;;;;;3.95;0.30;;;21.00;99.30;;;19.71;65.37;99878.06;4989595;28;20138;-57
2021/05/16 07:59:23;;;;;;;2.83;0.40;;;20.70;99.90;;;19.21;66.52;99872.78;4964154;28;20032;-58
2021/05/16 08:01:50;;;;;;;3.13;0.30;;;20.30;99.90;;;19.00;67.06;99860.72;4987003;28;20053;-55
2021/05/16 08:04:16;;;;;;;5.43;0.85;;;20.00;99.90;;;19.30;65.96;99860.91;4988948;28;20105;-57
2021/05/16 08:06:42;;;;;;;6.32;0.50;;;20.10;99.90;;;19.02;67.28;99858.69;4988660;28;20053;-55
2021/05/16 08:09:07;;;;;;;5.60;0.40;;;19.90;99.90;;;19.29;66.78;99861.94;4984252;28;20034;-55
2021/05/16 08:11:33;;;;;;;5.75;0.43;;;20.10;99.90;;;19.65;66.05;99871.00;4990702;23;20426;-58
2021/05/16 08:13:59;;;;;;;2.40;0.30;;;20.30;99.90;;;20.36;64.52;99881.78;4989648;28;20085;-56
2021/05/16 08:16:26;;;;;;;7.03;0.47;;;20.90;99.90;;;20.68;63.70;99882.44;4988436;28;20034;-57
2021/05/16 08:18:52;;;;;;;2.05;0.20;;;21.30;99.90;;;21.10;62.13;99877.97;4988645;28;20096;-58
2021/05/16 08:21:20;;;;;;;4.93;0.50;;;21.70;99.90;;;21.41;61.15;99874.22;4988187;28;20041;-57
2021/05/16 08:23:46;;;;;;;7.43;0.22;;;22.10;99.40;;;21.58;61.04;99884.16;4988878;28;20123;-51
2021/05/16 08:26:11;;;;;;;4.05;0.40;;;22.40;98.50;;;21.33;61.56;99874.56;4971144;28;20533;-55
2021/05/16 08:28:37;;;;;;;2.33;0.50;;;22.30;98.50;;;21.02;62.31;99891.53;4981240;28;20151;-52
2021/05/16 08:31:03;;;;;;;3.08;0.40;;;22.00;98.50;;;20.76;63.28;99882.13;4987868;28;20065;-51
2021/05/16 08:33:30;;;;;;;3.42;0.30;;;21.70;99.10;;;20.54;63.24;99889.75;4987657;28;20049;-58
2021/05/16 08:35:56;;;;;;;3.03;0.20;;;21.50;99.30;;;20.24;64.00;99890.72;4988439;28;20478;-46
2021/05/16 08:38:22;;;;;;;5.55;0.30;;;21.20;99.50;;;20.15;64.18;99893.66;4988154;28;20051;-57
2021/05/16 08:40:48;;;;;;;1.75;0.20;;;21.00;99.90;;;19.86;64.27;99902.28;4988469;28;20050;-58
2021/05/16 08:43:15;;;;;;;3.97;0.40;;;20.70;99.90;;;19.71;64.61;99905.28;4988589;28;20026;-51
2021/05/16 08:45:42;;;;;;;3.40;0.30;;;20.50;99.90;;;19.41;65.29;99899.81;4988288;28;20374;-55
2021/05/16 08:48:09;;;;;;;1.45;0.22;;;20.30;99.90;;;19.43;65.83;99903.06;4988129;28;20038;-53
2021/05/16 08:50:35;;;;;;;3.85;0.20;;;20.20;99.90;;;19.53;65.87;99903.41;4987795;28;20033;-63
2021/05/16 08:53:01;;;;;;;4.13;0.20;;;20.30;99.90;;;19.33;65.74;99902.75;4988400;28;20188;-51
2021/05/16 08:55:28;;;;;;;3.67;0.20;;;20.20;99.90;;;19.32;66.24;99898.50;4987522;28;20486;-61
2021/05/16 08:57:54;;;;;;;1.10;0.40;;;20.00;99.90;;;19.70;64.97;99902.88;4988125;28;20133;-58
2021/05/16 09:00:28;;;;;;;3.88;0.20;;;20.20;99.90;;;20.36;63.20;99905.59;4988152;28;20038;-52
2021/05/16 09:03:09;;;;;;;1.75;0.13;;;20.60;99.90;;;21.86;58.16;99893.00;4980520;28;20034;-57
2021/05/16 09:05:49;;;;;;;3.28;0.15;;;21.70;99.90;;;22.82;55.23;99891.53;4970202;28;20038;-52
2021/05/16 09:08:22;;;;;;;2.13;0.20;;;22.90;97.00;;;22.43;55.39;99895.81;4969787;28;20030;-52
2021/05/16 09:10:54;;;;;;;4.10;0.10;;;23.10;94.40;;;21.25;58.41;99903.25;4987077;28;20054;-53
2021/05/16 09:13:34;;;;;;;2.78;0.20;;;22.60;93.50;;;20.61;59.46;99894.97;4970194;28;20509;-58
2021/05/16 09:16:08;;;;;;;2.65;0.30;;;21.90;95.10;;;20.01;62.72;99904.59;4963890;28;20029;-61
2021/05/16 09:18:51;;;;;;;1.23;0.20;;;21.10;97.00;;;19.71;63.17;99900.00;4970332;28;20058;-59
2021/05/16 09:24:02;;;;;;;2.92;0.30;;;21.20;99.70;;;20.72;60.00;99898.69;4987501;28;20557;-56
2021/05/16 09:26:51;;;;;;;3.30;0.20;;;21.40;97.50;;;21.22;60.25;99901.06;4988510;28;20257;-56
2021/05/16 09:29:28;;;;;;;3.72;0.30;;;21.70;98.20;;;21.96;58.64;99892.44;4973846;28;20070;-52
2021/05/16 09:31:57;;;;;;;4.93;0.30;;;22.30;97.50;;;23.54;53.66;99896.19;4986817;28;20048;-56
2021/05/16 09:34:24;;;;;;;5.18;0.10;;;23.50;94.40;;;23.28;52.07;99888.84;4988194;28;20063;-58
2021/05/16 09:36:50;;;;;;;2.70;0.20;;;23.90;89.60;;;23.96;50.83;99890.41;4987993;28;20133;-62
2021/05/16 09:39:29;;;;;;;1.20;0.38;;;24.30;86.40;;;23.13;51.69;99892.06;4987999;28;20477;-59
2021/05/16 09:41:57;;;;;;;1.55;0.10;;;24.10;83.40;;;22.38;54.79;99900.22;4987846;28;20042;-58
2021/05/16 09:44:46;;;;;;;2.50;0.13;;;23.50;86.40;;;22.03;54.49;99903.75;4986624;28;20069;-57
2021/05/16 09:47:27;;;;;;;2.45;0.20;;;23.10;86.40;;;21.63;55.62;99906.28;4986920;28;20076;-59
2021/05/16 09:49:59;;;;;;;1.85;0.10;;;22.60;88.00;;;21.77;54.50;99905.00;4987708;28;20061;-58
2021/05/16 09:52:35;;;;;;;3.30;0.10;;;22.50;87.50;;;21.81;54.13;99906.16;4986119;28;20510;-56
2021/05/16 09:55:11;;;;;;;2.97;0.15;;;22.60;86.30;;;22.01;53.81;99911.13;4987646;28;20042;-59
2021/05/16 09:57:39;;;;;;;1.20;0.17;;;22.70;87.00;;;21.91;55.07;99913.53;4986951;28;20042;-57
2021/05/16 10:00:09;;;;;;;1.88;0.10;;;22.80;87.70;;;21.79;55.15;99918.03;4986828;28;20104;-60
2021/05/16 10:02:37;;;;;;;1.67;0.15;;;22.60;86.80;;;21.39;56.27;99924.00;4987029;28;20122;-55
2021/05/16 10:05:06;;;;;;;1.17;0.10;;;22.40;88.10;;;21.29;56.99;99921.09;4969650;28;20030;-53
2021/05/16 10:07:34;;;;;;;2.30;0.73;;;22.20;90.00;;;21.36;57.16;99921.81;4978680;28;20027;-58
2021/05/16 10:10:00;;;;;;;2.95;1.13;;;22.10;90.80;;;21.34;57.17;99918.56;4979890;28;20031;-58
2021/05/16 10:12:27;;;;;;;2.67;0.25;;;22.10;90.70;;;21.28;57.36;99922.13;4987792;28;20035;-52
2021/05/16 10:15:12;;;;;;;3.72;0.20;;;22.10;90.70;;;21.40;55.19;99920.31;4984868;28;20066;-63
2021/05/16 10:17:42;;;;;;;0.75;0.10;;;22.10;90.60;;;21.15;57.14;99928.41;4981461;28;20100;-59
2021/05/16 10:20:15;;;;;;;1.70;0.20;;;21.90;90.70;;;21.10;57.64;99920.34;4965347;28;20379;-58
2021/05/16 10:22:51;;;;;;;0.98;0.17;;;21.90;91.40;;;21.22;57.82;99919.59;4962545;28;20498;-54
2021/05/16 10:25:43;;;;;;;3.22;0.20;;;21.90;91.70;;;23.00;53.78;99919.75;4981758;28;20364;-56